createdAt,value
2022-11-30T00:01:14.474Z,5.47
2022-11-30T00:03:41.122Z,5.47
2022-11-30T00:06:09.598Z,5.46
2022-11-30T00:08:36.337Z,5.44
2022-11-30T00:11:18.253Z,5.43
2022-11-30T00:13:44.952Z,5.40
2022-11-30T00:16:11.398Z,5.40
2022-11-30T00:18:38.230Z,5.40
2022-11-30T00:24:45.934Z,5.42
2022-11-30T00:27:12.787Z,5.41
2022-11-30T00:29:39.192Z,5.43
2022-11-30T00:32:05.780Z,5.44
2022-11-30T00:34:32.179Z,5.45
2022-11-30T00:36:58.559Z,5.44
2022-11-30T00:39:24.946Z,5.44
2022-11-30T00:41:51.348Z,5.44
2022-11-30T00:44:17.813Z,5.43
2022-11-30T00:46:44.216Z,5.43
2022-11-30T00:49:10.639Z,5.42
2022-11-30T00:51:38.986Z,5.42
2022-11-30T00:54:05.432Z,5.40
2022-11-30T00:56:31.848Z,5.39
2022-11-30T00:58:58.288Z,5.38
2022-11-30T01:01:24.718Z,5.37
2022-11-30T01:03:51.332Z,5.37
2022-11-30T01:06:17.725Z,5.34
2022-11-30T01:08:44.249Z,5.33
2022-11-30T01:11:17.289Z,5.30
2022-11-30T01:13:43.809Z,5.29
2022-11-30T01:16:13.614Z,5.26
2022-11-30T01:18:40.074Z,5.24
2022-11-30T01:21:08.535Z,5.24
2022-11-30T01:23:35.333Z,5.25
2022-11-30T01:26:01.915Z,5.23
2022-11-30T01:28:28.455Z,5.23
2022-11-30T01:31:06.841Z,5.22
2022-11-30T01:33:33.460Z,5.22
2022-11-30T01:36:00.778Z,5.23
2022-11-30T01:38:31.078Z,5.23
2022-11-30T01:40:57.442Z,5.23
2022-11-30T01:43:50.696Z,5.23
2022-11-30T01:46:28.775Z,5.23
2022-11-30T01:49:00.665Z,5.23
2022-11-30T01:51:33.749Z,5.26
2022-11-30T01:54:01.590Z,5.26
2022-11-30T01:56:28.523Z,5.28
2022-11-30T01:58:54.938Z,5.29
2022-11-30T02:01:21.476Z,5.30
2022-11-30T02:04:01.989Z,5.29
2022-11-30T02:06:29.393Z,5.29
2022-11-30T02:08:56.240Z,5.29
2022-11-30T02:11:24.210Z,5.30
2022-11-30T02:14:15.975Z,5.29
2022-11-30T02:17:10.789Z,5.30
2022-11-30T02:20:11.246Z,5.29
2022-11-30T02:23:15.223Z,5.29
2022-11-30T02:26:03.533Z,5.27
2022-11-30T02:29:01.121Z,5.26
2022-11-30T02:31:42.025Z,5.27
2022-11-30T02:34:13.213Z,5.27
2022-11-30T02:36:40.241Z,5.28
2022-11-30T02:39:07.359Z,5.27
2022-11-30T02:41:39.009Z,5.28
2022-11-30T02:44:06.841Z,5.28
2022-11-30T02:46:54.458Z,5.27
2022-11-30T02:49:32.713Z,5.29
2022-11-30T02:52:01.438Z,5.30
2022-11-30T02:54:27.925Z,5.32
2022-11-30T02:56:54.332Z,5.33
2022-11-30T02:59:21.878Z,5.33
2022-11-30T03:01:48.934Z,5.33
2022-11-30T03:04:15.521Z,5.36
2022-11-30T03:06:41.971Z,5.37
2022-11-30T03:09:08.815Z,5.37
2022-11-30T03:11:35.275Z,5.36
2022-11-30T03:14:01.928Z,5.34
2022-11-30T03:16:28.378Z,5.33
2022-11-30T03:18:54.781Z,5.32
2022-11-30T03:21:21.226Z,5.30
2022-11-30T03:23:47.608Z,5.29
2022-11-30T03:26:14.032Z,5.30
2022-11-30T03:28:40.448Z,5.30
2022-11-30T03:31:06.992Z,5.29
2022-11-30T03:33:33.585Z,5.30
2022-11-30T03:36:02.408Z,5.31
2022-11-30T03:38:29.311Z,5.31
2022-11-30T03:41:00.458Z,5.32
2022-11-30T03:43:26.907Z,5.33
2022-11-30T03:45:53.363Z,5.33
2022-11-30T03:48:20.332Z,5.30
2022-11-30T03:50:49.779Z,5.30
2022-11-30T03:53:17.885Z,5.32
2022-11-30T03:55:44.558Z,5.34
2022-11-30T03:58:11.073Z,5.37
2022-11-30T04:00:37.858Z,5.38
2022-11-30T04:03:04.420Z,5.38
2022-11-30T04:05:31.077Z,5.37
2022-11-30T04:07:57.465Z,5.37
2022-11-30T04:10:24.176Z,5.36
2022-11-30T04:12:50.581Z,5.33
2022-11-30T04:15:17.063Z,5.32
2022-11-30T04:17:43.527Z,5.32
2022-11-30T04:20:10.254Z,5.31
2022-11-30T04:22:36.643Z,5.29
2022-11-30T04:25:03.128Z,5.32
2022-11-30T04:27:29.574Z,5.33
2022-11-30T04:29:55.984Z,5.31
2022-11-30T04:32:22.436Z,5.30
2022-11-30T04:34:49.250Z,5.29
2022-11-30T04:37:15.951Z,5.29
2022-11-30T04:39:42.405Z,5.29
2022-11-30T04:42:08.792Z,5.30
2022-11-30T04:44:35.179Z,5.30
2022-11-30T04:47:01.604Z,5.29
2022-11-30T04:49:28.034Z,5.29
2022-11-30T04:51:54.534Z,5.30
2022-11-30T04:54:20.991Z,5.33
2022-11-30T04:56:47.419Z,5.34
2022-11-30T04:59:13.965Z,5.35
2022-11-30T05:01:40.511Z,5.35
2022-11-30T05:04:07.017Z,5.36
2022-11-30T05:06:33.502Z,5.37
2022-11-30T05:08:59.953Z,5.39
2022-11-30T05:11:26.358Z,5.40
2022-11-30T05:13:52.783Z,5.40
2022-11-30T05:16:19.311Z,5.40
2022-11-30T05:18:45.923Z,5.40
2022-11-30T05:21:12.356Z,5.39
2022-11-30T05:23:38.723Z,5.39
2022-11-30T05:26:05.241Z,5.39
2022-11-30T05:28:31.797Z,5.39
2022-11-30T05:31:03.926Z,5.39
2022-11-30T05:33:30.335Z,5.38
2022-11-30T05:35:56.803Z,5.37
2022-11-30T05:38:23.322Z,5.35
2022-11-30T05:40:49.815Z,5.34
2022-11-30T05:43:16.382Z,5.32
2022-11-30T05:45:42.910Z,5.33
2022-11-30T05:48:09.278Z,5.33
2022-11-30T05:50:35.710Z,5.33
2022-11-30T05:53:02.148Z,5.31
2022-11-30T05:55:29.664Z,5.27
2022-11-30T05:57:56.094Z,5.25
2022-11-30T06:00:22.666Z,5.26
2022-11-30T06:02:49.193Z,5.25
2022-11-30T06:05:15.876Z,5.22
2022-11-30T06:07:42.386Z,5.21
2022-11-30T06:10:09.308Z,5.20
2022-11-30T06:12:35.753Z,5.21
2022-11-30T06:15:02.191Z,5.19
2022-11-30T06:17:28.603Z,5.19
2022-11-30T06:19:55.020Z,5.18
2022-11-30T06:22:21.452Z,5.18
2022-11-30T06:24:48.082Z,5.20
2022-11-30T06:27:14.682Z,5.21
2022-11-30T06:29:41.097Z,5.24
2022-11-30T06:32:08.277Z,5.26
2022-11-30T06:34:34.703Z,5.28
2022-11-30T06:37:01.105Z,5.29
2022-11-30T06:39:57.929Z,5.30
2022-11-30T06:42:13.913Z,5.31
2022-11-30T06:44:40.293Z,5.32
2022-11-30T06:47:06.696Z,5.34
2022-11-30T06:49:33.106Z,5.33
2022-11-30T06:51:59.614Z,5.33
2022-11-30T06:54:25.994Z,5.32
2022-11-30T06:56:52.454Z,5.30
2022-11-30T06:59:18.893Z,5.32
2022-11-30T07:01:45.512Z,5.33
2022-11-30T07:04:11.887Z,5.34
2022-11-30T07:06:38.312Z,5.36
2022-11-30T07:09:04.704Z,5.40
2022-11-30T07:11:32.516Z,5.43
2022-11-30T07:13:58.951Z,5.44
2022-11-30T07:16:25.316Z,5.43
2022-11-30T07:18:51.680Z,5.43
2022-11-30T07:21:18.047Z,5.42
2022-11-30T07:24:03.181Z,5.43
2022-11-30T07:26:29.647Z,5.43
2022-11-30T07:28:58.225Z,5.45
2022-11-30T07:31:30.239Z,5.48
2022-11-30T07:33:58.927Z,5.50
2022-11-30T07:36:26.884Z,5.51
2022-11-30T07:38:53.292Z,5.51
2022-11-30T07:41:19.706Z,5.51
2022-11-30T07:43:46.181Z,5.52
2022-11-30T07:46:14.268Z,5.56
2022-11-30T07:48:41.411Z,5.55
2022-11-30T07:51:12.952Z,5.56
2022-11-30T07:53:39.359Z,5.57
2022-11-30T07:56:08.778Z,5.56
2022-11-30T07:58:35.201Z,5.56
2022-11-30T08:01:07.432Z,5.55
2022-11-30T08:03:37.029Z,5.54
2022-11-30T08:06:27.296Z,5.55
2022-11-30T08:08:56.849Z,5.57
2022-11-30T08:11:28.630Z,5.58
2022-11-30T08:13:55.104Z,5.62
2022-11-30T08:16:24.641Z,5.63
2022-11-30T08:18:51.689Z,5.65
2022-11-30T08:21:20.348Z,5.67
2022-11-30T08:23:49.597Z,5.70
2022-11-30T08:26:28.943Z,5.74
2022-11-30T08:28:56.993Z,5.75
2022-11-30T08:31:30.517Z,5.79
2022-11-30T08:34:02.379Z,5.80
2022-11-30T08:36:30.373Z,5.80
2022-11-30T08:38:58.365Z,5.81
2022-11-30T08:41:25.789Z,5.85
2022-11-30T08:43:52.921Z,5.88
2022-11-30T08:49:25.394Z,5.90
2022-11-30T08:54:46.854Z,5.91
2022-11-30T08:57:19.304Z,5.91
2022-11-30T08:59:46.520Z,5.92
2022-11-30T09:02:19.571Z,5.96
2022-11-30T09:04:48.865Z,5.97
2022-11-30T09:07:15.658Z,5.97
2022-11-30T09:09:42.078Z,5.99
2022-11-30T09:12:08.678Z,6.02
2022-11-30T09:14:35.085Z,6.03
2022-11-30T09:17:02.161Z,6.06
2022-11-30T09:19:28.586Z,6.08
2022-11-30T09:21:54.957Z,6.09
2022-11-30T09:24:21.696Z,6.09
2022-11-30T09:26:48.181Z,6.10
2022-11-30T09:29:14.637Z,6.12
2022-11-30T09:31:41.063Z,6.14
2022-11-30T09:34:07.442Z,6.16
2022-11-30T09:36:34.070Z,6.14
2022-11-30T09:39:00.607Z,6.12
2022-11-30T09:41:53.293Z,6.12
2022-11-30T09:44:25.519Z,6.14
2022-11-30T09:47:13.529Z,6.15
2022-11-30T09:49:44.277Z,6.16
2022-11-30T09:52:17.329Z,6.15
2022-11-30T09:54:45.670Z,6.14
2022-11-30T09:57:26.117Z,6.14
2022-11-30T10:00:06.221Z,6.16
2022-11-30T10:02:38.436Z,6.17
2022-11-30T10:05:21.506Z,6.19
2022-11-30T10:07:55.627Z,6.21
2022-11-30T10:10:34.628Z,6.23
2022-11-30T10:13:09.883Z,6.25
2022-11-30T10:15:51.667Z,6.29
2022-11-30T10:18:40.849Z,6.31
2022-11-30T10:21:22.490Z,6.31
2022-11-30T10:23:59.027Z,6.31
2022-11-30T10:26:37.139Z,6.30
2022-11-30T10:29:41.648Z,6.31
2022-11-30T10:32:19.591Z,6.30
2022-11-30T10:34:54.647Z,6.30
2022-11-30T10:37:39.563Z,6.31
2022-11-30T10:40:15.167Z,6.33
2022-11-30T10:42:50.135Z,6.33
2022-11-30T10:45:21.160Z,6.33
2022-11-30T10:47:58.917Z,6.32
2022-11-30T10:50:28.986Z,6.31
2022-11-30T10:52:58.624Z,6.29
2022-11-30T10:55:28.645Z,6.27
2022-11-30T10:58:17.514Z,6.27
2022-11-30T11:01:04.426Z,6.27
2022-11-30T11:03:31.529Z,6.27
2022-11-30T11:06:14.014Z,6.26
2022-11-30T11:08:42.319Z,6.23
2022-11-30T11:11:34.440Z,6.22
2022-11-30T11:14:19.136Z,6.19
2022-11-30T11:16:53.513Z,6.20
2022-11-30T11:19:38.257Z,6.19
2022-11-30T11:22:17.859Z,6.19
2022-11-30T11:24:45.322Z,6.19
2022-11-30T11:27:28.408Z,6.20
2022-11-30T11:30:04.786Z,6.20
2022-11-30T11:32:31.493Z,6.20
2022-11-30T11:34:58.647Z,6.19
2022-11-30T11:37:38.250Z,6.22
2022-11-30T11:40:07.692Z,6.24
2022-11-30T11:42:49.889Z,6.26
2022-11-30T11:45:28.705Z,6.29
2022-11-30T11:48:12.671Z,6.30
2022-11-30T11:53:46.270Z,6.27
2022-11-30T11:56:25.633Z,6.28
2022-11-30T11:59:03.404Z,6.28
2022-11-30T12:01:41.981Z,6.30
2022-11-30T12:04:33.599Z,6.30
2022-11-30T12:07:04.844Z,6.30
2022-11-30T12:09:48.654Z,6.30
2022-11-30T12:12:15.485Z,6.32
2022-11-30T12:14:41.946Z,6.33
2022-11-30T12:17:08.252Z,6.36
2022-11-30T12:19:54.371Z,6.38
2022-11-30T12:22:49.384Z,6.40
2022-11-30T12:25:26.505Z,6.40
2022-11-30T12:28:07.867Z,6.41
2022-11-30T12:30:58.103Z,6.40
2022-11-30T12:33:45.737Z,6.39
2022-11-30T12:36:23.821Z,6.40
2022-11-30T12:39:15.116Z,6.41
2022-11-30T12:41:50.282Z,6.41
2022-11-30T12:44:28.403Z,6.45
2022-11-30T12:47:32.772Z,6.48
2022-11-30T12:50:13.192Z,6.51
2022-11-30T12:52:55.679Z,6.50
2022-11-30T12:55:37.663Z,6.49
2022-11-30T12:58:30.248Z,6.47
2022-11-30T13:01:47.699Z,6.41
2022-11-30T13:04:21.136Z,6.35
2022-11-30T13:07:21.800Z,6.30
2022-11-30T13:09:53.540Z,6.32
2022-11-30T13:12:29.325Z,6.33
2022-11-30T13:15:00.688Z,6.32
2022-11-30T13:17:27.558Z,6.32
2022-11-30T13:20:07.304Z,6.31
2022-11-30T13:22:59.605Z,6.30
2022-11-30T13:26:13.507Z,6.25
2022-11-30T13:28:42.642Z,6.25
2022-11-30T13:31:16.645Z,6.26
2022-11-30T13:33:48.977Z,6.24
2022-11-30T13:36:33.001Z,6.20
2022-11-30T13:39:14.705Z,6.18
2022-11-30T13:42:07.225Z,6.18
2022-11-30T13:44:37.083Z,6.19
2022-11-30T13:47:25.162Z,6.18
2022-11-30T13:49:56.993Z,6.18
2022-11-30T13:52:57.756Z,6.18
2022-11-30T13:56:05.352Z,6.17
2022-11-30T13:58:32.453Z,6.15
2022-11-30T14:01:01.965Z,6.13
2022-11-30T14:03:31.641Z,6.10
2022-11-30T14:06:28.793Z,6.08
2022-11-30T14:08:55.419Z,6.07
2022-11-30T14:11:43.156Z,6.03
2022-11-30T14:14:47.493Z,6.03
2022-11-30T14:17:20.432Z,6.06
2022-11-30T14:19:50.644Z,6.08
2022-11-30T14:22:17.743Z,6.07
2022-11-30T14:24:47.629Z,6.05
2022-11-30T14:27:23.506Z,6.02
2022-11-30T14:29:53.283Z,6.02
2022-11-30T14:32:28.273Z,6.00
2022-11-30T14:35:03.495Z,6.01
2022-11-30T14:37:40.669Z,6.02
2022-11-30T14:40:07.780Z,6.03
2022-11-30T14:42:35.480Z,6.03
2022-11-30T14:45:02.216Z,6.01
2022-11-30T14:47:34.172Z,5.98
2022-11-30T14:50:05.704Z,5.96
2022-11-30T14:52:51.884Z,5.92
2022-11-30T14:55:49.394Z,5.87
2022-11-30T14:58:44.729Z,5.84
2022-11-30T15:01:21.582Z,5.83
2022-11-30T15:03:49.741Z,5.82
2022-11-30T15:06:19.318Z,5.83
2022-11-30T15:08:53.091Z,5.84
2022-11-30T15:11:20.378Z,5.82
2022-11-30T15:13:53.788Z,5.81
2022-11-30T15:16:26.546Z,5.79
2022-11-30T15:18:54.786Z,5.79
2022-11-30T15:21:32.264Z,5.79
2022-11-30T15:24:02.309Z,5.79
2022-11-30T15:26:37.895Z,5.78
2022-11-30T15:29:07.830Z,5.77
2022-11-30T15:31:38.074Z,5.77
2022-11-30T15:34:07.164Z,5.76
2022-11-30T15:36:38.261Z,5.73
2022-11-30T15:39:07.961Z,5.71
2022-11-30T15:41:36.029Z,5.71
2022-11-30T15:44:02.411Z,5.71
2022-11-30T15:46:42.726Z,5.72
2022-11-30T15:49:18.508Z,5.77
2022-11-30T15:51:48.728Z,5.79
2022-11-30T15:54:17.372Z,5.77
2022-11-30T15:56:56.521Z,5.75
2022-11-30T15:59:25.194Z,5.73
2022-11-30T16:02:08.872Z,5.70
2022-11-30T16:04:57.376Z,5.68
2022-11-30T16:07:32.660Z,5.66
2022-11-30T16:10:18.555Z,5.62
2022-11-30T16:12:46.050Z,5.59
2022-11-30T16:15:23.213Z,5.58
2022-11-30T16:17:50.901Z,5.57
2022-11-30T16:20:17.491Z,5.58
2022-11-30T16:22:46.309Z,5.57
2022-11-30T16:25:19.364Z,5.55
2022-11-30T16:27:47.769Z,5.55
2022-11-30T16:30:16.527Z,5.54
2022-11-30T16:32:43.571Z,5.53
2022-11-30T16:35:25.467Z,5.55
2022-11-30T16:37:52.327Z,5.57
2022-11-30T16:40:19.209Z,5.59
2022-11-30T16:42:45.698Z,5.61
2022-11-30T16:45:16.521Z,5.61
2022-11-30T16:47:43.730Z,5.62
2022-11-30T16:50:11.973Z,5.63
2022-11-30T16:52:39.211Z,5.63
2022-11-30T16:55:15.077Z,5.63
2022-11-30T16:57:41.885Z,5.63
2022-11-30T17:00:09.752Z,5.64
2022-11-30T17:02:41.244Z,5.64
2022-11-30T17:05:08.298Z,5.64
2022-11-30T17:07:36.330Z,5.63
2022-11-30T17:10:05.552Z,5.61
2022-11-30T17:12:32.221Z,5.58
2022-11-30T17:14:58.787Z,5.53
2022-11-30T17:17:25.317Z,5.51
2022-11-30T17:19:51.885Z,5.51
2022-11-30T17:22:18.280Z,5.53
2022-11-30T17:24:45.019Z,5.54
2022-11-30T17:27:12.428Z,5.54
2022-11-30T17:29:40.370Z,5.54
2022-11-30T17:32:06.853Z,5.54
2022-11-30T17:34:33.218Z,5.53
2022-11-30T17:36:59.622Z,5.54
2022-11-30T17:39:26.160Z,5.56
2022-11-30T17:41:52.609Z,5.57
2022-11-30T17:44:19.005Z,5.56
2022-11-30T17:46:48.199Z,5.56
2022-11-30T17:49:15.146Z,5.56
2022-11-30T17:51:41.608Z,5.55
2022-11-30T17:54:08.053Z,5.54
2022-11-30T17:56:35.766Z,5.53
2022-11-30T17:59:02.414Z,5.53
2022-11-30T18:01:29.623Z,5.52
2022-11-30T18:03:56.500Z,5.52
2022-11-30T18:06:23.016Z,5.52
2022-11-30T18:08:49.492Z,5.51
2022-11-30T18:11:23.662Z,5.50
2022-11-30T18:13:51.731Z,5.52
2022-11-30T18:16:21.008Z,5.52
2022-11-30T18:18:48.803Z,5.54
2022-11-30T18:21:18.883Z,5.53
2022-11-30T18:23:45.758Z,5.51
2022-11-30T18:26:15.034Z,5.49
2022-11-30T18:28:41.608Z,5.49
2022-11-30T18:31:08.536Z,5.50
2022-11-30T18:33:36.683Z,5.51
2022-11-30T18:36:07.254Z,5.50
2022-11-30T18:38:38.050Z,5.52
2022-11-30T18:41:05.314Z,5.54
2022-11-30T18:43:33.315Z,5.53
2022-11-30T18:46:08.350Z,5.55
2022-11-30T18:48:36.334Z,5.53
2022-11-30T18:51:26.878Z,5.52
2022-11-30T18:53:59.293Z,5.51
2022-11-30T18:56:28.299Z,5.51
2022-11-30T18:59:00.734Z,5.53
2022-11-30T19:01:28.532Z,5.54
2022-11-30T19:03:57.624Z,5.54
2022-11-30T19:06:25.427Z,5.51
2022-11-30T19:08:51.964Z,5.49
2022-11-30T19:11:18.368Z,5.47
2022-11-30T19:13:45.675Z,5.47
2022-11-30T19:16:15.575Z,5.46
2022-11-30T19:18:44.811Z,5.46
2022-11-30T19:21:14.498Z,5.47
2022-11-30T19:23:40.943Z,5.46
2022-11-30T19:26:09.800Z,5.47
2022-11-30T19:28:38.171Z,5.48
2022-11-30T19:31:09.209Z,5.46
2022-11-30T19:33:37.530Z,5.45
2022-11-30T19:36:06.469Z,5.42
2022-11-30T19:38:33.138Z,5.41
2022-11-30T19:41:03.866Z,5.40
2022-11-30T19:43:30.360Z,5.39
2022-11-30T19:45:56.896Z,5.37
2022-11-30T19:48:23.297Z,5.36
2022-11-30T19:50:49.670Z,5.36
2022-11-30T19:53:16.082Z,5.35
2022-11-30T19:55:42.471Z,5.34
2022-11-30T19:58:08.855Z,5.32
2022-11-30T20:00:35.246Z,5.33
2022-11-30T20:03:09.547Z,5.32
2022-11-30T20:05:37.677Z,5.30
2022-11-30T20:08:05.085Z,5.31
2022-11-30T20:10:32.230Z,5.30
2022-11-30T20:12:59.322Z,5.28
2022-11-30T20:15:25.761Z,5.28
2022-11-30T20:17:52.195Z,5.27
2022-11-30T20:20:18.570Z,5.29
2022-11-30T20:22:44.945Z,5.29
2022-11-30T20:25:11.346Z,5.28
2022-11-30T20:27:37.741Z,5.29
2022-11-30T20:30:04.632Z,5.28
2022-11-30T20:32:31.101Z,5.27
2022-11-30T20:34:57.474Z,5.27
2022-11-30T20:37:23.891Z,5.26
2022-11-30T20:39:50.284Z,5.25
2022-11-30T20:42:16.660Z,5.26
2022-11-30T20:44:43.109Z,5.25
2022-11-30T20:47:11.257Z,5.25
2022-11-30T20:49:37.734Z,5.24
2022-11-30T20:52:04.232Z,5.22
2022-11-30T20:54:31.615Z,5.20
2022-11-30T20:56:58.787Z,5.18
2022-11-30T20:59:26.790Z,5.17
2022-11-30T21:01:55.033Z,5.16
2022-11-30T21:04:23.593Z,5.15
2022-11-30T21:06:50.143Z,5.13
2022-11-30T21:09:18.411Z,5.13
2022-11-30T21:11:45.266Z,5.10
2022-11-30T21:14:12.612Z,5.09
2022-11-30T21:16:39.357Z,5.11
2022-11-30T21:19:05.758Z,5.12
2022-11-30T21:21:35.201Z,5.14
2022-11-30T21:24:06.316Z,5.14
2022-11-30T21:26:35.854Z,5.14
2022-11-30T21:29:06.875Z,5.12
2022-11-30T21:31:33.996Z,5.09
2022-11-30T21:34:00.623Z,5.07
2022-11-30T21:36:27.479Z,5.07
2022-11-30T21:39:05.087Z,5.07
2022-11-30T21:41:36.688Z,5.05
2022-11-30T21:44:04.426Z,5.04
2022-11-30T21:46:31.355Z,5.02
2022-11-30T21:48:58.146Z,5.01
2022-11-30T21:51:26.966Z,5.02
2022-11-30T21:53:59.191Z,5.03
2022-11-30T21:56:31.197Z,5.02
2022-11-30T21:58:57.940Z,5.02
2022-11-30T22:01:28.366Z,5.03
2022-11-30T22:03:56.173Z,5.02
2022-11-30T22:06:24.236Z,5.01
2022-11-30T22:08:50.650Z,4.99
2022-11-30T22:11:19.424Z,4.97
2022-11-30T22:13:50.083Z,4.95
2022-11-30T22:16:18.023Z,4.94
2022-11-30T22:18:45.027Z,4.95
2022-11-30T22:21:17.495Z,4.93
2022-11-30T22:23:46.559Z,4.88
2022-11-30T22:26:16.948Z,4.87
2022-11-30T22:28:45.904Z,4.87
2022-11-30T22:31:14.698Z,4.90
2022-11-30T22:33:42.927Z,4.91
2022-11-30T22:36:18.198Z,4.90
2022-11-30T22:38:45.613Z,4.89
2022-11-30T22:41:15.365Z,4.87
2022-11-30T22:43:42.905Z,4.85
2022-11-30T22:46:12.144Z,4.82
2022-11-30T22:48:39.609Z,4.80
2022-11-30T22:51:08.894Z,4.80
2022-11-30T22:53:36.599Z,4.80
2022-11-30T22:56:08.608Z,4.81
2022-11-30T22:58:35.268Z,4.80
2022-11-30T23:01:13.251Z,4.79
2022-11-30T23:03:41.465Z,4.78
2022-11-30T23:06:09.487Z,4.79
2022-11-30T23:08:36.631Z,4.79
2022-11-30T23:11:06.355Z,4.80
2022-11-30T23:13:32.981Z,4.80
2022-11-30T23:16:00.063Z,4.81
2022-11-30T23:18:27.936Z,4.81
2022-11-30T23:20:55.478Z,4.81
2022-11-30T23:23:23.592Z,4.80
2022-11-30T23:25:50.533Z,4.78
2022-11-30T23:28:17.203Z,4.77
2022-11-30T23:30:43.785Z,4.74
2022-11-30T23:33:10.436Z,4.72
2022-11-30T23:35:41.922Z,4.71
2022-11-30T23:38:08.362Z,4.67
2022-11-30T23:40:34.750Z,4.65
2022-11-30T23:43:01.163Z,4.62
2022-11-30T23:45:27.565Z,4.61
2022-11-30T23:47:53.962Z,4.61
2022-11-30T23:50:20.351Z,4.60
2022-11-30T23:52:47.168Z,4.59
2022-11-30T23:55:13.550Z,4.58
2022-11-30T23:57:39.922Z,4.55
